Wetterdaten: Woche 31.07.17 - 06.08.17 (KW31)
Datum Zeit Temp. I. Temp. A. Feuchte I. Feuchte A. Luftdruck Regen Wind Richtung Sonnenschein UV Solar Taupunkt Windchill Windben
31.07.2017 00:00 25,7 C 19,2 C 55 % 81 % 1013,6 hPa 0,0 l/m 2,4 km/h (1 Bft) S 0,00 h 0,0 UV-I 0 W/m 15,8 C 19,1 C 5,3 km/h (1 Bft)
31.07.2017 01:00 25,8 C 19,3 C 55 % 79 % 1013,4 hPa 0,0 l/m 0,4 km/h (0 Bft) SW 0,00 h 0,0 UV-I 0 W/m 15,6 C 19,3 C 1,1 km/h (0 Bft)
31.07.2017 02:00 25,9 C 18,9 C 55 % 80 % 1013,3 hPa 0,0 l/m 0,0 km/h (0 Bft) N 0,00 h 0,0 UV-I 0 W/m 15,4 C 18,9 C 0,0 km/h (0 Bft)
31.07.2017 03:00 25,7 C 18,5 C 55 % 82 % 1013,3 hPa 0,0 l/m 0,0 km/h (0 Bft) N 0,00 h 0,0 UV-I 0 W/m 15,3 C 18,5 C 0,0 km/h (0 Bft)
31.07.2017 04:00 25,8 C 18,2 C 55 % 85 % 1014,4 hPa 0,0 l/m 1,6 km/h (1 Bft) W-NW 0,00 h 0,0 UV-I 0 W/m 15,7 C 18,0 C 2,4 km/h (1 Bft)
31.07.2017 05:00 26,0 C 17,9 C 55 % 85 % 1014,0 hPa 0,0 l/m 0,0 km/h (0 Bft) N 0,00 h 0,0 UV-I 5 W/m 15,4 C 17,9 C 0,0 km/h (0 Bft)
31.07.2017 06:00 25,9 C 17,2 C 55 % 88 % 1013,9 hPa 0,0 l/m 0,0 km/h (0 Bft) N 0,00 h 0,0 UV-I 29 W/m 15,2 C 17,2 C 0,0 km/h (0 Bft)
31.07.2017 07:00 25,7 C 18,0 C 56 % 87 % 1014,2 hPa 0,0 l/m 0,0 km/h (0 Bft) N 0,28 h 0,6 UV-I 134 W/m 15,8 C 18,0 C 0,0 km/h (0 Bft)
31.07.2017 08:00 25,7 C 20,9 C 56 % 76 % 1014,9 hPa 0,0 l/m 4,0 km/h (1 Bft) S 1,02 h 1,4 UV-I 376 W/m 16,5 C 20,7 C 8,1 km/h (2 Bft)
31.07.2017 09:00 25,5 C 21,8 C 56 % 72 % 1015,1 hPa 0,0 l/m 7,5 km/h (2 Bft) S 1,00 h 2,3 UV-I 503 W/m 16,5 C 21,3 C 13,3 km/h (3 Bft)
31.07.2017 10:00 25,3 C 23,6 C 57 % 67 % 1015,2 hPa 0,0 l/m 5,5 km/h (1 Bft) S 1,00 h 4,0 UV-I 681 W/m 17,0 C 23,4 C 10,4 km/h (2 Bft)
31.07.2017 11:00 25,6 C 25,3 C 57 % 62 % 1015,3 hPa 0,0 l/m 5,2 km/h (1 Bft) S 1,00 h 5,4 UV-I 777 W/m 17,4 C 25,1 C 11,8 km/h (2 Bft)
31.07.2017 12:00 26,0 C 26,8 C 58 % 57 % 1015,0 hPa 0,0 l/m 5,6 km/h (1 Bft) S 1,00 h 6,2 UV-I 829 W/m 17,6 C 26,6 C 10,8 km/h (2 Bft)
31.07.2017 13:00 26,2 C 27,9 C 57 % 53 % 1014,9 hPa 0,0 l/m 5,8 km/h (1 Bft) S 1,00 h 6,3 UV-I 839 W/m 17,4 C 27,7 C 10,9 km/h (2 Bft)
31.07.2017 14:00 26,1 C 28,0 C 56 % 50 % 1014,6 hPa 0,0 l/m 6,1 km/h (2 Bft) S 1,00 h 4,7 UV-I 612 W/m 16,7 C 27,8 C 11,4 km/h (2 Bft)
31.07.2017 15:00 26,4 C 28,7 C 55 % 49 % 1014,6 hPa 0,0 l/m 6,3 km/h (2 Bft) S 1,00 h 4,6 UV-I 685 W/m 16,8 C 28,5 C 11,2 km/h (2 Bft)
31.07.2017 16:00 26,7 C 28,4 C 55 % 51 % 1014,8 hPa 0,0 l/m 6,0 km/h (2 Bft) S 1,00 h 3,0 UV-I 539 W/m 17,2 C 28,2 C 9,8 km/h (2 Bft)
31.07.2017 17:00 27,0 C 27,4 C 55 % 55 % 1015,1 hPa 0,0 l/m 4,3 km/h (1 Bft) N 0,30 h 1,2 UV-I 131 W/m 17,4 C 27,2 C 5,0 km/h (1 Bft)
31.07.2017 18:00 26,9 C 26,0 C 56 % 61 % 1015,0 hPa 0,0 l/m 4,5 km/h (1 Bft) N 0,00 h 0,5 UV-I 72 W/m 18,0 C 26,0 C 0,1 km/h (0 Bft)
31.07.2017 19:00 26,7 C 26,1 C 58 % 61 % 1014,5 hPa 0,0 l/m 4,8 km/h (1 Bft) N 0,00 h 0,0 UV-I 61 W/m 17,9 C 26,1 C 0,0 km/h (0 Bft)
31.07.2017 20:00 26,8 C 25,5 C 58 % 63 % 1014,5 hPa 0,0 l/m 4,8 km/h (1 Bft) N 0,00 h 0,0 UV-I 25 W/m 17,8 C 25,5 C 0,0 km/h (0 Bft)
31.07.2017 21:00 26,7 C 23,5 C 58 % 69 % 1014,7 hPa 0,0 l/m 4,8 km/h (1 Bft) N 0,00 h 0,0 UV-I 0 W/m 17,5 C 23,5 C 0,0 km/h (0 Bft)
31.07.2017 22:00 26,4 C 21,9 C 58 % 73 % 1014,7 hPa 0,0 l/m 4,8 km/h (1 Bft) N 0,00 h 0,0 UV-I 0 W/m 16,8 C 21,9 C 0,0 km/h (0 Bft)
31.07.2017 23:00 26,2 C 19,4 C 58 % 84 % 1014,6 hPa 0,0 l/m 4,8 km/h (1 Bft) N 0,00 h 0,0 UV-I 0 W/m 16,6 C 19,4 C 0,0 km/h (0 Bft)
01.08.2017 00:00 26,1 C 18,3 C 58 % 88 % 1014,2 hPa 0,0 l/m 4,8 km/h (1 Bft) N 0,00 h 0,0 UV-I 0 W/m 16,2 C 18,3 C 0,0 km/h (0 Bft)
01.08.2017 01:00 26,0 C 17,2 C 58 % 90 % 1013,7 hPa 0,0 l/m 4,8 km/h (1 Bft) N 0,00 h 0,0 UV-I 0 W/m 15,7 C 17,2 C 0,0 km/h (0 Bft)
01.08.2017 02:00 25,9 C 16,8 C 58 % 91 % 1013,2 hPa 0,0 l/m 4,8 km/h (1 Bft) N 0,00 h 0,0 UV-I 0 W/m 15,3 C 16,8 C 0,0 km/h (0 Bft)
01.08.2017 03:00 25,8 C 16,6 C 57 % 91 % 1012,9 hPa 0,0 l/m 4,8 km/h (1 Bft) N 0,00 h 0,0 UV-I 0 W/m 15,2 C 16,6 C 0,0 km/h (0 Bft)
01.08.2017 04:00 26,0 C 17,0 C 57 % 90 % 1012,8 hPa 0,0 l/m 4,8 km/h (1 Bft) N 0,00 h 0,0 UV-I 0 W/m 15,4 C 17,0 C 0,0 km/h (0 Bft)
01.08.2017 05:00 25,8 C 17,0 C 57 % 91 % 1013,1 hPa 0,0 l/m 3,3 km/h (1 Bft) N 0,00 h 0,0 UV-I 7 W/m 15,5 C 17,0 C 0,0 km/h (0 Bft)
01.08.2017 06:00 25,8 C 16,8 C 57 % 92 % 1013,9 hPa 0,0 l/m 1,5 km/h (1 Bft) N-NW 0,00 h 0,0 UV-I 36 W/m 15,4 C 16,6 C 2,6 km/h (1 Bft)
01.08.2017 07:00 25,7 C 19,7 C 57 % 82 % 1015,0 hPa 0,0 l/m 1,9 km/h (1 Bft) N 0,35 h 0,6 UV-I 128 W/m 16,4 C 19,6 C 3,2 km/h (1 Bft)
01.08.2017 08:00 25,8 C 21,8 C 57 % 74 % 1015,4 hPa 0,0 l/m 2,0 km/h (1 Bft) NW 0,67 h 1,1 UV-I 250 W/m 17,1 C 21,8 C 4,0 km/h (1 Bft)
01.08.2017 09:00 25,7 C 23,7 C 58 % 74 % 1015,2 hPa 0,0 l/m 2,4 km/h (1 Bft) N 1,00 h 1,8 UV-I 471 W/m 18,8 C 23,7 C 4,7 km/h (1 Bft)
01.08.2017 10:00 25,9 C 26,3 C 59 % 63 % 1015,1 hPa 0,0 l/m 0,3 km/h (0 Bft) N-NW 0,92 h 3,6 UV-I 624 W/m 18,7 C 26,3 C 0,7 km/h (0 Bft)
01.08.2017 11:00 26,3 C 28,2 C 59 % 58 % 1014,5 hPa 0,0 l/m 2,3 km/h (1 Bft) N 0,98 h 4,4 UV-I 654 W/m 19,2 C 28,2 C 0,9 km/h (0 Bft)
01.08.2017 12:00 26,5 C 30,7 C 60 % 54 % 1014,1 hPa 0,0 l/m 1,6 km/h (1 Bft) N 1,00 h 5,4 UV-I 807 W/m 20,3 C 30,7 C 0,0 km/h (0 Bft)
01.08.2017 13:00 26,9 C 32,3 C 59 % 45 % 1013,5 hPa 0,0 l/m 1,8 km/h (1 Bft) N 1,00 h 5,9 UV-I 807 W/m 18,8 C 32,3 C 3,3 km/h (1 Bft)
01.08.2017 14:00 27,1 C 33,3 C 58 % 41 % 1012,9 hPa 0,0 l/m 1,7 km/h (1 Bft) S 1,00 h 5,4 UV-I 769 W/m 18,1 C 33,3 C 3,2 km/h (1 Bft)
01.08.2017 15:00 27,1 C 33,8 C 55 % 37 % 1012,5 hPa 0,0 l/m 3,5 km/h (1 Bft) SO 1,00 h 4,2 UV-I 650 W/m 17,1 C 33,8 C 6,2 km/h (2 Bft)
01.08.2017 16:00 27,3 C 33,9 C 54 % 35 % 1012,2 hPa 0,0 l/m 4,8 km/h (1 Bft) S 1,00 h 3,0 UV-I 569 W/m 16,4 C 33,9 C 8,5 km/h (2 Bft)
01.08.2017 17:00 27,4 C 33,4 C 53 % 36 % 1011,6 hPa 0,0 l/m 4,0 km/h (1 Bft) S 0,92 h 1,7 UV-I 379 W/m 16,4 C 33,4 C 7,1 km/h (2 Bft)
01.08.2017 18:00 27,4 C 31,7 C 53 % 39 % 1011,9 hPa 0,0 l/m 0,2 km/h (0 Bft) S 0,00 h 0,6 UV-I 91 W/m 16,0 C 31,7 C 0,9 km/h (0 Bft)
01.08.2017 19:00 27,3 C 29,2 C 54 % 50 % 1012,0 hPa 0,0 l/m 8,2 km/h (2 Bft) N-NW 0,00 h 0,5 UV-I 46 W/m 17,7 C 28,9 C 14,3 km/h (3 Bft)
01.08.2017 20:00 27,4 C 27,3 C 55 % 53 % 1012,2 hPa 0,0 l/m 4,7 km/h (1 Bft) N 0,00 h 0,0 UV-I 9 W/m 16,9 C 27,1 C 7,9 km/h (2 Bft)
01.08.2017 21:00 27,6 C 26,6 C 55 % 56 % 1013,3 hPa 0,2 l/m 6,9 km/h (2 Bft) NW 0,00 h 0,0 UV-I 0 W/m 17,1 C 26,0 C 10,9 km/h (2 Bft)
01.08.2017 22:00 27,1 C 21,5 C 58 % 84 % 1015,1 hPa 0,6 l/m 9,2 km/h (2 Bft) NW 0,00 h 0,0 UV-I 0 W/m 18,7 C 20,3 C 14,9 km/h (3 Bft)
01.08.2017 23:00 26,5 C 20,1 C 62 % 92 % 1017,1 hPa 0,6 l/m 0,4 km/h (0 Bft) SO 0,00 h 0,0 UV-I 0 W/m 18,8 C 20,1 C 1,8 km/h (1 Bft)
02.08.2017 00:00 26,5 C 19,9 C 62 % 94 % 1017,6 hPa 0,2 l/m 0,0 km/h (0 Bft) N 0,00 h 0,0 UV-I 0 W/m 18,9 C 19,9 C 0,0 km/h (0 Bft)
02.08.2017 01:00 26,4 C 19,6 C 62 % 95 % 1015,3 hPa 0,6 l/m 1,3 km/h (1 Bft) O-SO 0,00 h 0,0 UV-I 0 W/m 18,8 C 19,6 C 3,2 km/h (1 Bft)
02.08.2017 02:00 26,2 C 19,2 C 63 % 95 % 1015,1 hPa 0,0 l/m 1,0 km/h (0 Bft) W-NW 0,00 h 0,0 UV-I 0 W/m 18,4 C 19,2 C 2,7 km/h (1 Bft)
02.08.2017 03:00 26,3 C 18,8 C 62 % 95 % 1015,5 hPa 0,0 l/m 0,0 km/h (0 Bft) N 0,00 h 0,0 UV-I 0 W/m 18,0 C 18,8 C 0,0 km/h (0 Bft)
02.08.2017 04:00 26,2 C 18,4 C 62 % 95 % 1015,7 hPa 0,0 l/m 0,0 km/h (0 Bft) N 0,00 h 0,0 UV-I 0 W/m 17,6 C 18,4 C 0,0 km/h (0 Bft)
02.08.2017 05:00 26,1 C 18,2 C 62 % 95 % 1016,4 hPa 0,0 l/m 0,0 km/h (0 Bft) N 0,00 h 0,0 UV-I 5 W/m 17,4 C 18,2 C 0,0 km/h (0 Bft)
02.08.2017 06:00 25,9 C 18,0 C 62 % 96 % 1016,3 hPa 0,0 l/m 0,0 km/h (0 Bft) N 0,00 h 0,0 UV-I 23 W/m 17,4 C 18,0 C 0,0 km/h (0 Bft)
02.08.2017 07:00 25,8 C 18,6 C 62 % 95 % 1016,8 hPa 0,0 l/m 0,9 km/h (0 Bft) S 0,18 h 0,5 UV-I 108 W/m 17,9 C 18,6 C 2,4 km/h (1 Bft)
02.08.2017 08:00 25,6 C 19,5 C 63 % 92 % 1017,7 hPa 0,0 l/m 2,8 km/h (1 Bft) S 0,28 h 0,8 UV-I 144 W/m 18,3 C 19,5 C 7,5 km/h (2 Bft)
02.08.2017 09:00 25,7 C 19,9 C 64 % 91 % 1018,0 hPa 0,0 l/m 0,9 km/h (0 Bft) S 0,37 h 1,1 UV-I 142 W/m 18,4 C 19,9 C 2,3 km/h (1 Bft)
02.08.2017 10:00 25,5 C 20,9 C 64 % 86 % 1018,3 hPa 0,0 l/m 3,7 km/h (1 Bft) SW 0,70 h 1,4 UV-I 175 W/m 18,5 C 20,8 C 8,6 km/h (2 Bft)
02.08.2017 11:00 25,6 C 21,6 C 63 % 83 % 1018,5 hPa 0,0 l/m 3,7 km/h (1 Bft) W 0,93 h 2,5 UV-I 310 W/m 18,7 C 21,5 C 6,9 km/h (2 Bft)
02.08.2017 12:00 25,9 C 24,4 C 63 % 73 % 1018,2 hPa 0,0 l/m 5,0 km/h (1 Bft) W-SW 1,00 h 4,9 UV-I 612 W/m 19,2 C 24,2 C 10,4 km/h (2 Bft)
02.08.2017 13:00 26,1 C 24,2 C 61 % 71 % 1018,0 hPa 0,0 l/m 4,2 km/h (1 Bft) W-SW 1,00 h 3,5 UV-I 363 W/m 18,5 C 24,0 C 9,3 km/h (2 Bft)
02.08.2017 14:00 26,3 C 24,8 C 61 % 70 % 1017,7 hPa 0,0 l/m 3,8 km/h (1 Bft) W-SW 0,98 h 3,2 UV-I 373 W/m 18,9 C 24,7 C 8,5 km/h (2 Bft)
02.08.2017 15:00 26,4 C 25,9 C 62 % 67 % 1017,5 hPa 0,0 l/m 3,9 km/h (1 Bft) W-SW 1,00 h 3,9 UV-I 577 W/m 19,3 C 25,9 C 8,7 km/h (2 Bft)
02.08.2017 16:00 26,7 C 26,3 C 61 % 64 % 1017,0 hPa 0,0 l/m 2,7 km/h (1 Bft) W-SW 0,97 h 2,7 UV-I 411 W/m 18,9 C 26,2 C 6,5 km/h (2 Bft)
02.08.2017 17:00 26,9 C 26,4 C 60 % 62 % 1016,5 hPa 0,0 l/m 3,9 km/h (1 Bft) W-SW 0,82 h 1,7 UV-I 278 W/m 18,5 C 26,3 C 8,1 km/h (2 Bft)
02.08.2017 18:00 26,9 C 26,0 C 59 % 63 % 1016,3 hPa 0,0 l/m 3,5 km/h (1 Bft) W-SW 0,13 h 0,8 UV-I 124 W/m 18,3 C 25,9 C 7,8 km/h (2 Bft)
02.08.2017 19:00 27,0 C 25,0 C 60 % 67 % 1016,2 hPa 0,0 l/m 0,5 km/h (0 Bft) W-SW 0,00 h 0,5 UV-I 56 W/m 18,3 C 25,0 C 1,8 km/h (1 Bft)
02.08.2017 20:00 27,0 C 24,0 C 60 % 71 % 1016,1 hPa 0,0 l/m 0,0 km/h (0 Bft) N 0,00 h 0,0 UV-I 20 W/m 18,4 C 24,0 C 0,0 km/h (0 Bft)
02.08.2017 21:00 26,8 C 21,8 C 61 % 82 % 1016,6 hPa 0,0 l/m 0,0 km/h (0 Bft) N 0,00 h 0,0 UV-I 0 W/m 18,6 C 21,8 C 0,0 km/h (0 Bft)
02.08.2017 22:00 26,6 C 20,3 C 62 % 88 % 1016,8 hPa 0,0 l/m 0,0 km/h (0 Bft) N 0,00 h 0,0 UV-I 0 W/m 18,2 C 20,3 C 0,0 km/h (0 Bft)
02.08.2017 23:00 26,7 C 19,5 C 62 % 89 % 1016,9 hPa 0,0 l/m 0,0 km/h (0 Bft) N 0,00 h 0,0 UV-I 0 W/m 17,7 C 19,5 C 0,0 km/h (0 Bft)
03.08.2017 00:00 26,6 C 19,0 C 61 % 90 % 1016,7 hPa 0,0 l/m 0,0 km/h (0 Bft) N 0,00 h 0,0 UV-I 0 W/m 17,3 C 19,0 C 0,0 km/h (0 Bft)
03.08.2017 01:00 26,4 C 18,2 C 61 % 91 % 1016,6 hPa 0,0 l/m 0,0 km/h (0 Bft) N 0,00 h 0,0 UV-I 0 W/m 16,7 C 18,2 C 0,0 km/h (0 Bft)
03.08.2017 02:00 26,4 C 17,4 C 60 % 91 % 1016,0 hPa 0,0 l/m 0,0 km/h (0 Bft) N 0,00 h 0,0 UV-I 0 W/m 16,0 C 17,4 C 0,0 km/h (0 Bft)
03.08.2017 03:00 26,3 C 16,6 C 60 % 92 % 1015,5 hPa 0,0 l/m 0,0 km/h (0 Bft) N 0,00 h 0,0 UV-I 0 W/m 15,2 C 16,6 C 0,0 km/h (0 Bft)
03.08.2017 04:00 26,3 C 15,9 C 59 % 93 % 1015,0 hPa 0,0 l/m 0,0 km/h (0 Bft) N 0,00 h 0,0 UV-I 0 W/m 14,8 C 15,9 C 0,0 km/h (0 Bft)
03.08.2017 05:00 26,2 C 15,5 C 58 % 94 % 1014,8 hPa 0,0 l/m 0,0 km/h (0 Bft) N 0,00 h 0,0 UV-I 5 W/m 14,5 C 15,5 C 0,0 km/h (0 Bft)
03.08.2017 06:00 26,1 C 15,2 C 58 % 94 % 1014,3 hPa 0,0 l/m 0,0 km/h (0 Bft) N 0,00 h 0,0 UV-I 23 W/m 14,3 C 15,2 C 0,0 km/h (0 Bft)
03.08.2017 07:00 26,3 C 16,5 C 58 % 96 % 1013,9 hPa 0,0 l/m 0,0 km/h (0 Bft) N 0,00 h 0,5 UV-I 58 W/m 15,8 C 16,5 C 0,0 km/h (0 Bft)
03.08.2017 08:00 26,3 C 18,3 C 59 % 94 % 1014,2 hPa 0,0 l/m 0,0 km/h (0 Bft) N 0,08 h 0,8 UV-I 55 W/m 17,4 C 18,3 C 0,1 km/h (0 Bft)
03.08.2017 09:00 26,1 C 19,2 C 60 % 95 % 1014,5 hPa 1,2 l/m 0,7 km/h (0 Bft) W-NW 0,17 h 0,9 UV-I 81 W/m 18,4 C 19,2 C 1,4 km/h (1 Bft)
03.08.2017 10:00 26,1 C 20,2 C 62 % 95 % 1014,6 hPa 2,2 l/m 0,2 km/h (0 Bft) O-SO 0,40 h 1,1 UV-I 125 W/m 19,4 C 20,2 C 0,9 km/h (0 Bft)
03.08.2017 11:00 25,8 C 20,4 C 66 % 95 % 1014,5 hPa 0,2 l/m 0,3 km/h (0 Bft) SO 0,52 h 1,4 UV-I 137 W/m 19,6 C 20,4 C 0,9 km/h (0 Bft)
03.08.2017 12:00 25,8 C 20,7 C 67 % 95 % 1015,0 hPa 0,0 l/m 0,6 km/h (0 Bft) S-SO 0,08 h 1,1 UV-I 100 W/m 19,8 C 20,7 C 1,3 km/h (1 Bft)
03.08.2017 13:00 25,7 C 21,0 C 67 % 93 % 1014,0 hPa 0,0 l/m 2,0 km/h (1 Bft) SO 0,50 h 1,5 UV-I 148 W/m 19,7 C 20,9 C 3,8 km/h (1 Bft)
03.08.2017 14:00 25,8 C 22,0 C 67 % 89 % 1013,5 hPa 0,0 l/m 1,3 km/h (1 Bft) SO 0,87 h 2,2 UV-I 236 W/m 20,1 C 22,0 C 3,1 km/h (1 Bft)
03.08.2017 15:00 25,8 C 23,0 C 67 % 86 % 1013,3 hPa 0,0 l/m 1,1 km/h (0 Bft) S 0,98 h 2,1 UV-I 249 W/m 20,5 C 23,0 C 3,3 km/h (1 Bft)
03.08.2017 16:00 25,9 C 23,1 C 68 % 85 % 1012,9 hPa 0,0 l/m 4,8 km/h (1 Bft) S 0,13 h 0,9 UV-I 111 W/m 20,3 C 23,0 C 9,6 km/h (2 Bft)
03.08.2017 17:00 25,9 C 23,8 C 68 % 82 % 1012,6 hPa 0,0 l/m 5,5 km/h (1 Bft) S 0,67 h 1,3 UV-I 223 W/m 20,5 C 23,5 C 10,8 km/h (2 Bft)
03.08.2017 18:00 26,3 C 24,0 C 67 % 80 % 1012,3 hPa 0,0 l/m 1,1 km/h (0 Bft) S 0,08 h 0,6 UV-I 102 W/m 20,4 C 24,0 C 3,8 km/h (1 Bft)
03.08.2017 19:00 26,3 C 23,9 C 66 % 77 % 1011,9 hPa 0,0 l/m 1,8 km/h (1 Bft) S 0,00 h 0,5 UV-I 54 W/m 19,7 C 23,9 C 4,9 km/h (1 Bft)
03.08.2017 20:00 26,3 C 23,1 C 66 % 81 % 1011,7 hPa 0,0 l/m 0,0 km/h (0 Bft) N 0,00 h 0,0 UV-I 14 W/m 19,7 C 23,1 C 0,1 km/h (0 Bft)
03.08.2017 21:00 26,3 C 22,3 C 66 % 84 % 1011,9 hPa 0,0 l/m 0,0 km/h (0 Bft) S-SW 0,00 h 0,0 UV-I 5 W/m 19,5 C 22,3 C 0,3 km/h (0 Bft)
03.08.2017 22:00 26,3 C 21,2 C 66 % 87 % 1012,3 hPa 0,0 l/m 0,0 km/h (0 Bft) N 0,00 h 0,0 UV-I 0 W/m 18,9 C 21,2 C 0,0 km/h (0 Bft)
03.08.2017 23:00 26,2 C 20,0 C 66 % 89 % 1012,7 hPa 0,0 l/m 0,0 km/h (0 Bft) N 0,00 h 0,0 UV-I 0 W/m 18,1 C 20,0 C 0,0 km/h (0 Bft)
04.08.2017 00:00 26,1 C 18,9 C 66 % 92 % 1012,8 hPa 0,0 l/m 0,0 km/h (0 Bft) N 0,00 h 0,0 UV-I 0 W/m 17,7 C 18,9 C 0,0 km/h (0 Bft)
04.08.2017 01:00 25,9 C 18,6 C 65 % 94 % 1012,8 hPa 0,0 l/m 0,0 km/h (0 Bft) N 0,00 h 0,0 UV-I 0 W/m 17,5 C 18,6 C 0,0 km/h (0 Bft)
04.08.2017 02:00 25,9 C 17,9 C 64 % 94 % 1012,7 hPa 0,0 l/m 0,0 km/h (0 Bft) N 0,00 h 0,0 UV-I 0 W/m 16,9 C 17,9 C 0,0 km/h (0 Bft)
04.08.2017 03:00 25,8 C 17,6 C 64 % 94 % 1012,7 hPa 0,0 l/m 0,0 km/h (0 Bft) N 0,00 h 0,0 UV-I 0 W/m 16,7 C 17,6 C 0,0 km/h (0 Bft)
04.08.2017 04:00 25,9 C 17,4 C 63 % 95 % 1012,5 hPa 0,0 l/m 0,0 km/h (0 Bft) N 0,00 h 0,0 UV-I 0 W/m 16,6 C 17,4 C 0,0 km/h (0 Bft)
04.08.2017 05:00 25,8 C 17,3 C 63 % 95 % 1012,7 hPa 0,0 l/m 0,0 km/h (0 Bft) N 0,00 h 0,0 UV-I 0 W/m 16,5 C 17,3 C 0,1 km/h (0 Bft)
04.08.2017 06:00 25,7 C 17,6 C 62 % 93 % 1012,9 hPa 0,0 l/m 0,0 km/h (0 Bft) N 0,00 h 0,0 UV-I 19 W/m 16,4 C 17,6 C 0,0 km/h (0 Bft)
04.08.2017 07:00 25,9 C 18,4 C 62 % 90 % 1012,9 hPa 0,0 l/m 0,0 km/h (0 Bft) S 0,00 h 0,6 UV-I 67 W/m 16,8 C 18,4 C 0,2 km/h (0 Bft)
04.08.2017 08:00 25,8 C 20,7 C 62 % 80 % 1012,9 hPa 0,0 l/m 1,7 km/h (1 Bft) S-SW 0,78 h 1,2 UV-I 200 W/m 17,1 C 20,7 C 4,3 km/h (1 Bft)
04.08.2017 09:00 25,8 C 22,1 C 59 % 70 % 1012,9 hPa 0,0 l/m 3,7 km/h (1 Bft) SW 0,93 h 2,3 UV-I 375 W/m 16,5 C 21,9 C 6,1 km/h (2 Bft)
04.08.2017 10:00 25,8 C 24,1 C 58 % 64 % 1012,6 hPa 0,0 l/m 8,3 km/h (2 Bft) W-SW 1,00 h 3,8 UV-I 560 W/m 16,9 C 23,5 C 14,2 km/h (3 Bft)
04.08.2017 11:00 25,9 C 24,8 C 57 % 63 % 1012,3 hPa 0,0 l/m 8,8 km/h (2 Bft) SW 1,00 h 4,9 UV-I 554 W/m 17,2 C 24,1 C 15,8 km/h (3 Bft)
04.08.2017 12:00 26,2 C 25,5 C 56 % 56 % 1012,2 hPa 0,0 l/m 9,1 km/h (2 Bft) SW 1,00 h 5,6 UV-I 708 W/m 16,1 C 24,8 C 17,0 km/h (3 Bft)
04.08.2017 13:00 26,2 C 26,0 C 52 % 48 % 1012,1 hPa 0,0 l/m 10,3 km/h (2 Bft) W-SW 1,00 h 5,4 UV-I 578 W/m 14,1 C 25,2 C 19,5 km/h (3 Bft)
04.08.2017 14:00 26,3 C 26,1 C 52 % 50 % 1011,9 hPa 0,0 l/m 8,9 km/h (2 Bft) W-SW 1,00 h 5,2 UV-I 592 W/m 14,9 C 25,6 C 17,7 km/h (3 Bft)
04.08.2017 15:00 26,2 C 25,0 C 52 % 53 % 1012,2 hPa 0,0 l/m 8,8 km/h (2 Bft) W 1,00 h 3,3 UV-I 364 W/m 14,8 C 24,4 C 16,7 km/h (3 Bft)
04.08.2017 16:00 26,2 C 23,5 C 51 % 48 % 1012,5 hPa 0,0 l/m 8,1 km/h (2 Bft) W-SW 0,87 h 1,7 UV-I 198 W/m 11,8 C 22,8 C 16,1 km/h (3 Bft)
04.08.2017 17:00 26,1 C 22,7 C 50 % 51 % 1012,6 hPa 0,0 l/m 5,3 km/h (1 Bft) W-SW 0,07 h 1,0 UV-I 129 W/m 12,1 C 22,5 C 12,2 km/h (2 Bft)
04.08.2017 18:00 26,1 C 22,4 C 50 % 48 % 1012,5 hPa 0,0 l/m 8,0 km/h (2 Bft) W-SW 0,00 h 0,8 UV-I 99 W/m 10,8 C 21,7 C 15,9 km/h (3 Bft)
04.08.2017 19:00 26,0 C 21,8 C 47 % 51 % 1012,7 hPa 0,0 l/m 6,2 km/h (2 Bft) W-SW 0,00 h 0,5 UV-I 53 W/m 11,2 C 21,5 C 12,0 km/h (2 Bft)
04.08.2017 20:00 25,9 C 20,5 C 47 % 60 % 1013,1 hPa 0,0 l/m 2,4 km/h (1 Bft) W-SW 0,00 h 0,0 UV-I 11 W/m 12,4 C 20,4 C 3,8 km/h (1 Bft)
04.08.2017 21:00 25,8 C 19,0 C 48 % 67 % 1013,8 hPa 0,0 l/m 0,2 km/h (0 Bft) SW 0,00 h 0,0 UV-I 0 W/m 12,7 C 19,0 C 0,9 km/h (0 Bft)
04.08.2017 22:00 25,6 C 17,3 C 49 % 75 % 1014,4 hPa 0,0 l/m 0,0 km/h (0 Bft) N 0,00 h 0,0 UV-I 0 W/m 12,8 C 17,3 C 0,0 km/h (0 Bft)
04.08.2017 23:00 25,3 C 15,8 C 50 % 82 % 1014,9 hPa 0,0 l/m 0,0 km/h (0 Bft) N 0,00 h 0,0 UV-I 0 W/m 12,8 C 15,8 C 0,0 km/h (0 Bft)
05.08.2017 00:00 25,6 C 14,7 C 51 % 87 % 1015,1 hPa 0,0 l/m 0,0 km/h (0 Bft) N 0,00 h 0,0 UV-I 0 W/m 12,6 C 14,7 C 0,0 km/h (0 Bft)
05.08.2017 01:00 25,6 C 14,0 C 52 % 90 % 1015,2 hPa 0,0 l/m 0,0 km/h (0 Bft) N 0,00 h 0,0 UV-I 0 W/m 12,4 C 14,0 C 0,0 km/h (0 Bft)
05.08.2017 02:00 25,5 C 13,6 C 52 % 91 % 1015,3 hPa 0,0 l/m 0,0 km/h (0 Bft) N 0,00 h 0,0 UV-I 0 W/m 12,1 C 13,6 C 0,0 km/h (0 Bft)
05.08.2017 03:00 25,5 C 13,4 C 53 % 92 % 1015,3 hPa 0,0 l/m 0,0 km/h (0 Bft) N 0,00 h 0,0 UV-I 0 W/m 12,1 C 13,4 C 0,0 km/h (0 Bft)
05.08.2017 04:00 25,4 C 12,9 C 53 % 92 % 1015,4 hPa 0,0 l/m 0,0 km/h (0 Bft) N 0,00 h 0,0 UV-I 0 W/m 11,6 C 12,9 C 0,0 km/h (0 Bft)
05.08.2017 05:00 25,4 C 12,5 C 53 % 93 % 1015,3 hPa 0,0 l/m 0,0 km/h (0 Bft) N 0,00 h 0,0 UV-I 5 W/m 11,3 C 12,5 C 0,0 km/h (0 Bft)
05.08.2017 06:00 25,4 C 12,1 C 53 % 93 % 1015,3 hPa 0,0 l/m 0,0 km/h (0 Bft) N 0,00 h 0,0 UV-I 16 W/m 11,0 C 12,1 C 0,0 km/h (0 Bft)
05.08.2017 07:00 25,4 C 14,8 C 53 % 88 % 1015,2 hPa 0,0 l/m 0,0 km/h (0 Bft) N 0,62 h 0,7 UV-I 176 W/m 12,9 C 14,8 C 0,0 km/h (0 Bft)
05.08.2017 08:00 25,3 C 18,4 C 53 % 79 % 1015,2 hPa 0,0 l/m 0,0 km/h (0 Bft) N 0,88 h 1,3 UV-I 333 W/m 14,6 C 18,4 C 0,0 km/h (0 Bft)
05.08.2017 09:00 25,3 C 21,0 C 52 % 66 % 1015,1 hPa 0,0 l/m 0,0 km/h (0 Bft) N 1,00 h 2,2 UV-I 484 W/m 14,5 C 21,0 C 0,0 km/h (0 Bft)
05.08.2017 10:00 25,1 C 22,5 C 50 % 59 % 1014,8 hPa 0,0 l/m 2,5 km/h (1 Bft) S 1,00 h 4,0 UV-I 660 W/m 14,1 C 22,4 C 3,8 km/h (1 Bft)
05.08.2017 11:00 25,5 C 24,3 C 49 % 52 % 1014,3 hPa 0,0 l/m 5,8 km/h (2 Bft) S 1,00 h 5,6 UV-I 806 W/m 13,9 C 24,1 C 8,6 km/h (2 Bft)
05.08.2017 12:00 25,7 C 25,2 C 48 % 51 % 1013,9 hPa 0,0 l/m 6,2 km/h (2 Bft) S 1,00 h 6,2 UV-I 734 W/m 14,3 C 24,9 C 12,3 km/h (3 Bft)
05.08.2017 13:00 26,0 C 26,3 C 49 % 49 % 1013,4 hPa 0,0 l/m 5,8 km/h (2 Bft) S 1,00 h 5,8 UV-I 642 W/m 14,7 C 26,1 C 11,8 km/h (2 Bft)
05.08.2017 14:00 26,1 C 25,9 C 50 % 51 % 1013,2 hPa 0,0 l/m 5,6 km/h (1 Bft) SW 1,00 h 3,6 UV-I 360 W/m 14,9 C 25,7 C 11,3 km/h (2 Bft)
05.08.2017 15:00 26,4 C 26,4 C 51 % 50 % 1012,8 hPa 0,0 l/m 6,0 km/h (2 Bft) S 0,95 h 3,4 UV-I 407 W/m 15,1 C 26,2 C 12,3 km/h (3 Bft)
05.08.2017 16:00 26,4 C 26,8 C 51 % 50 % 1012,4 hPa 0,0 l/m 6,5 km/h (2 Bft) S-SW 0,83 h 2,7 UV-I 365 W/m 15,4 C 26,6 C 13,3 km/h (3 Bft)
05.08.2017 17:00 26,4 C 26,4 C 51 % 51 % 1012,0 hPa 0,0 l/m 5,9 km/h (2 Bft) SW 0,43 h 1,4 UV-I 217 W/m 15,5 C 26,2 C 12,0 km/h (2 Bft)
05.08.2017 18:00 26,4 C 25,2 C 52 % 58 % 1012,2 hPa 0,0 l/m 7,3 km/h (2 Bft) W 0,00 h 0,6 UV-I 106 W/m 16,3 C 24,7 C 13,1 km/h (3 Bft)
05.08.2017 19:00 26,4 C 23,1 C 54 % 67 % 1013,1 hPa 0,0 l/m 4,7 km/h (1 Bft) W 0,00 h 0,5 UV-I 43 W/m 16,7 C 22,8 C 10,4 km/h (2 Bft)
05.08.2017 20:00 26,4 C 20,3 C 55 % 84 % 1013,8 hPa 0,8 l/m 1,6 km/h (1 Bft) W-SW 0,00 h 0,0 UV-I 12 W/m 17,4 C 20,3 C 3,0 km/h (1 Bft)
05.08.2017 21:00 26,5 C 18,9 C 56 % 91 % 1014,3 hPa 0,0 l/m 0,0 km/h (0 Bft) N 0,00 h 0,0 UV-I 0 W/m 17,5 C 18,9 C 0,0 km/h (0 Bft)
05.08.2017 22:00 26,3 C 18,7 C 58 % 92 % 1014,7 hPa 0,0 l/m 0,0 km/h (0 Bft) N 0,00 h 0,0 UV-I 0 W/m 17,3 C 18,7 C 0,0 km/h (0 Bft)
05.08.2017 23:00 25,9 C 18,3 C 59 % 90 % 1015,3 hPa 0,0 l/m 0,1 km/h (0 Bft) W-SW 0,00 h 0,0 UV-I 0 W/m 16,6 C 18,3 C 0,3 km/h (0 Bft)
06.08.2017 00:00 25,9 C 17,1 C 58 % 90 % 1015,9 hPa 0,0 l/m 0,1 km/h (0 Bft) W-SW 0,00 h 0,0 UV-I 0 W/m 15,4 C 17,1 C 0,4 km/h (0 Bft)
06.08.2017 01:00 25,8 C 16,4 C 58 % 91 % 1016,3 hPa 0,0 l/m 0,4 km/h (0 Bft) W-NW 0,00 h 0,0 UV-I 0 W/m 14,9 C 16,4 C 2,2 km/h (1 Bft)
06.08.2017 02:00 25,8 C 16,4 C 57 % 90 % 1016,9 hPa 0,0 l/m 1,0 km/h (0 Bft) W-NW 0,00 h 0,0 UV-I 0 W/m 14,7 C 16,4 C 3,1 km/h (1 Bft)
06.08.2017 03:00 26,0 C 15,7 C 57 % 90 % 1017,4 hPa 0,0 l/m 0,4 km/h (0 Bft) W-NW 0,00 h 0,0 UV-I 0 W/m 14,1 C 15,7 C 1,5 km/h (1 Bft)
06.08.2017 04:00 26,1 C 14,4 C 57 % 92 % 1017,8 hPa 0,0 l/m 0,0 km/h (0 Bft) N 0,00 h 0,0 UV-I 0 W/m 13,1 C 14,4 C 0,0 km/h (0 Bft)
06.08.2017 05:00 26,1 C 13,9 C 56 % 94 % 1018,3 hPa 0,0 l/m 0,0 km/h (0 Bft) N 0,00 h 0,0 UV-I 0 W/m 13,0 C 13,9 C 0,0 km/h (0 Bft)
06.08.2017 06:00 26,1 C 14,3 C 56 % 95 % 1019,0 hPa 0,0 l/m 0,0 km/h (0 Bft) N 0,00 h 0,0 UV-I 19 W/m 13,5 C 14,3 C 0,0 km/h (0 Bft)
06.08.2017 07:00 26,1 C 14,7 C 56 % 91 % 1019,3 hPa 0,0 l/m 0,6 km/h (0 Bft) NW 0,12 h 0,6 UV-I 101 W/m 13,3 C 14,7 C 2,0 km/h (1 Bft)
06.08.2017 08:00 25,7 C 15,2 C 53 % 85 % 1019,9 hPa 0,0 l/m 1,6 km/h (1 Bft) N 0,42 h 1,0 UV-I 155 W/m 12,8 C 15,2 C 3,4 km/h (1 Bft)
06.08.2017 09:00 25,3 C 17,5 C 52 % 77 % 1020,2 hPa 0,0 l/m 0,6 km/h (0 Bft) N-NW 1,00 h 2,1 UV-I 482 W/m 13,4 C 17,5 C 1,0 km/h (0 Bft)
06.08.2017 10:00 25,5 C 19,2 C 51 % 67 % 1020,3 hPa 0,0 l/m 3,9 km/h (1 Bft) NW 1,00 h 3,4 UV-I 527 W/m 12,8 C 19,1 C 6,3 km/h (2 Bft)
06.08.2017 11:00 25,5 C 20,2 C 51 % 60 % 1020,4 hPa 0,0 l/m 3,1 km/h (1 Bft) NW 1,00 h 4,5 UV-I 634 W/m 12,3 C 20,2 C 6,2 km/h (2 Bft)
06.08.2017 12:00 25,8 C 20,7 C 51 % 56 % 1020,0 hPa 0,0 l/m 2,4 km/h (1 Bft) NW 1,00 h 4,5 UV-I 621 W/m 11,6 C 20,7 C 5,2 km/h (1 Bft)
06.08.2017 13:00 26,0 C 20,2 C 51 % 55 % 1020,2 hPa 0,0 l/m 1,4 km/h (1 Bft) NW 1,00 h 2,4 UV-I 269 W/m 10,8 C 20,2 C 2,9 km/h (1 Bft)
06.08.2017 14:00 25,9 C 20,0 C 49 % 56 % 1020,3 hPa 0,0 l/m 1,6 km/h (1 Bft) N 0,90 h 1,8 UV-I 216 W/m 11,0 C 19,9 C 2,0 km/h (1 Bft)
06.08.2017 15:00 25,7 C 20,2 C 47 % 56 % 1020,3 hPa 0,0 l/m 2,5 km/h (1 Bft) N 0,98 h 1,9 UV-I 251 W/m 11,2 C 20,2 C 2,5 km/h (1 Bft)
06.08.2017 16:00 25,6 C 20,4 C 45 % 55 % 1020,3 hPa 0,0 l/m 1,9 km/h (1 Bft) N 1,00 h 1,8 UV-I 268 W/m 11,0 C 20,4 C 0,4 km/h (0 Bft)
06.08.2017 17:00 25,4 C 20,3 C 44 % 54 % 1020,5 hPa 0,0 l/m 0,0 km/h (0 Bft) N-NO 1,00 h 1,2 UV-I 211 W/m 10,8 C 20,3 C 0,0 km/h (0 Bft)
06.08.2017 18:00 25,3 C 20,1 C 46 % 54 % 1020,7 hPa 0,0 l/m 1,3 km/h (1 Bft) N-NO 0,47 h 0,8 UV-I 160 W/m 10,5 C 20,1 C 2,1 km/h (1 Bft)
06.08.2017 19:00 25,7 C 19,1 C 47 % 56 % 1021,0 hPa 0,0 l/m 0,2 km/h (0 Bft) NO 0,00 h 0,0 UV-I 52 W/m 10,2 C 19,1 C 0,6 km/h (0 Bft)
06.08.2017 20:00 25,9 C 18,3 C 47 % 61 % 1021,3 hPa 0,0 l/m 0,4 km/h (0 Bft) N-NW 0,00 h 0,0 UV-I 25 W/m 10,7 C 18,3 C 1,0 km/h (0 Bft)
06.08.2017 21:00 26,1 C 17,0 C 48 % 67 % 1021,8 hPa 0,0 l/m 0,3 km/h (0 Bft) N-NW 0,00 h 0,0 UV-I 0 W/m 10,9 C 17,0 C 1,2 km/h (1 Bft)
06.08.2017 22:00 26,2 C 15,1 C 49 % 75 % 1022,2 hPa 0,0 l/m 0,0 km/h (0 Bft) N 0,00 h 0,0 UV-I 0 W/m 10,6 C 15,1 C 0,0 km/h (0 Bft)
06.08.2017 23:00 26,0 C 13,3 C 49 % 84 % 1022,1 hPa 0,0 l/m 0,0 km/h (0 Bft) N 0,00 h 0,0 UV-I 0 W/m 10,6 C 13,3 C 0,0 km/h (0 Bft)
Min-Datum _ 05.08.17 31.07.17 06.08.17 01.08.17 01.08.17 - 31.07.17 - - - - 06.08.17 05.08.17 31.07.17
_ Min-Zeit 09:55 08:01 16:11 16:11 17:35 - 00:00 - - - - 17:41 06:39 00:00
Minimum _ 25,0 C 0,0 C 44 % 33 % 1011,4 hPa - 0,0 km/h (0 Bft) - - - - 9,6 C 12,0 C 0,0 km/h (0 Bft)
Max-Datum _ 01.08.17 01.08.17 03.08.17 02.08.17 06.08.17 03.08.17 01.08.17 - 31.07.17 04.08.17 04.08.17 01.08.17 01.08.17 01.08.17
_ Max-Zeit 21:23 15:15 17:25 07:29 22:10 10:53 21:52 - 08:00 13:36 13:08 12:35 15:15 21:56
Maximum _ 27,8 C 34,3 C 69 % 97 % 1022,4 hPa 2,2 l/m 27,4 km/h
NW (4 Bft)
- 0,03 h 8,7 UV-I 1132 W/m 21,7 C 34,3 C 46,7 km/h
NW (6 Bft)
Durchschnitt _ 26,1 C 21,1 C 57 % 75 % 1015,1 hPa #6,6 l/m 2,4 km/h (1 Bft) N #60:32 h 2,5 UV-I 287 W/m 16,0 C 21,0 C 4,0 km/h (1 Bft)